sensor_id;sensor_type;location;lat;lon;timestamp;P1;durP1;ratioP1;P2;durP2;ratioP2
38783;SDS011;24531;45.502;12.238;2023-05-10T00:02:08;3.83;;;2.15;;
38783;SDS011;24531;45.502;12.238;2023-05-10T00:04:34;2.83;;;2.30;;
38783;SDS011;24531;45.502;12.238;2023-05-10T00:06:59;4.80;;;2.15;;
38783;SDS011;24531;45.502;12.238;2023-05-10T00:09:25;4.50;;;2.63;;
38783;SDS011;24531;45.502;12.238;2023-05-10T00:11:51;4.05;;;2.50;;
38783;SDS011;24531;45.502;12.238;2023-05-10T00:14:16;5.82;;;2.22;;
38783;SDS011;24531;45.502;12.238;2023-05-10T00:16:42;3.00;;;1.80;;
38783;SDS011;24531;45.502;12.238;2023-05-10T00:19:08;2.72;;;2.20;;
38783;SDS011;24531;45.502;12.238;2023-05-10T00:21:33;3.03;;;2.17;;
38783;SDS011;24531;45.502;12.238;2023-05-10T00:23:59;3.47;;;2.22;;
38783;SDS011;24531;45.502;12.238;2023-05-10T00:26:25;2.95;;;2.20;;
38783;SDS011;24531;45.502;12.238;2023-05-10T00:28:51;3.10;;;2.35;;
38783;SDS011;24531;45.502;12.238;2023-05-10T00:31:16;2.67;;;2.05;;
38783;SDS011;24531;45.502;12.238;2023-05-10T00:33:42;4.07;;;2.47;;
38783;SDS011;24531;45.502;12.238;2023-05-10T00:36:08;3.63;;;2.33;;
38783;SDS011;24531;45.502;12.238;2023-05-10T00:38:33;3.90;;;2.65;;
38783;SDS011;24531;45.502;12.238;2023-05-10T00:40:59;2.38;;;1.95;;
38783;SDS011;24531;45.502;12.238;2023-05-10T00:43:25;4.03;;;2.47;;
38783;SDS011;24531;45.502;12.238;2023-05-10T00:45:50;2.90;;;1.90;;
38783;SDS011;24531;45.502;12.238;2023-05-10T00:48:17;6.25;;;2.42;;
38783;SDS011;24531;45.502;12.238;2023-05-10T00:50:43;4.25;;;2.50;;
38783;SDS011;24531;45.502;12.238;2023-05-10T00:53:09;2.90;;;2.22;;
38783;SDS011;24531;45.502;12.238;2023-05-10T00:55:35;2.92;;;2.28;;
38783;SDS011;24531;45.502;12.238;2023-05-10T00:58:02;4.28;;;2.28;;
38783;SDS011;24531;45.502;12.238;2023-05-10T01:00:27;3.10;;;1.75;;
38783;SDS011;24531;45.502;12.238;2023-05-10T01:02:54;1.95;;;1.60;;
38783;SDS011;24531;45.502;12.238;2023-05-10T01:05:20;6.05;;;2.38;;
38783;SDS011;24531;45.502;12.238;2023-05-10T01:07:46;4.00;;;1.75;;
38783;SDS011;24531;45.502;12.238;2023-05-10T01:10:13;3.58;;;2.40;;
38783;SDS011;24531;45.502;12.238;2023-05-10T01:12:39;3.95;;;1.95;;
38783;SDS011;24531;45.502;12.238;2023-05-10T01:15:07;3.97;;;2.28;;
38783;SDS011;24531;45.502;12.238;2023-05-10T01:17:37;4.25;;;2.50;;
38783;SDS011;24531;45.502;12.238;2023-05-10T01:20:05;2.40;;;1.90;;
38783;SDS011;24531;45.502;12.238;2023-05-10T01:22:47;2.88;;;2.00;;
38783;SDS011;24531;45.502;12.238;2023-05-10T01:28:25;4.67;;;1.83;;
38783;SDS011;24531;45.502;12.238;2023-05-10T01:31:39;3.38;;;1.85;;
38783;SDS011;24531;45.502;12.238;2023-05-10T01:34:28;4.28;;;1.80;;
38783;SDS011;24531;45.502;12.238;2023-05-10T01:37:05;4.30;;;1.55;;
38783;SDS011;24531;45.502;12.238;2023-05-10T01:39:45;3.90;;;1.92;;
38783;SDS011;24531;45.502;12.238;2023-05-10T01:42:17;3.22;;;2.00;;
38783;SDS011;24531;45.502;12.238;2023-05-10T01:45:00;6.07;;;2.08;;
38783;SDS011;24531;45.502;12.238;2023-05-10T01:47:37;3.45;;;2.45;;
38783;SDS011;24531;45.502;12.238;2023-05-10T01:50:15;3.95;;;2.53;;
38783;SDS011;24531;45.502;12.238;2023-05-10T01:52:44;3.67;;;2.47;;
38783;SDS011;24531;45.502;12.238;2023-05-10T01:55:16;3.45;;;2.30;;
38783;SDS011;24531;45.502;12.238;2023-05-10T01:57:44;3.15;;;2.35;;
38783;SDS011;24531;45.502;12.238;2023-05-10T02:00:13;3.25;;;2.28;;
38783;SDS011;24531;45.502;12.238;2023-05-10T02:02:40;3.17;;;2.10;;
38783;SDS011;24531;45.502;12.238;2023-05-10T02:05:10;4.32;;;2.40;;
38783;SDS011;24531;45.502;12.238;2023-05-10T02:07:38;2.50;;;2.10;;
38783;SDS011;24531;45.502;12.238;2023-05-10T02:10:05;2.90;;;2.03;;
38783;SDS011;24531;45.502;12.238;2023-05-10T02:12:36;8.43;;;2.10;;
38783;SDS011;24531;45.502;12.238;2023-05-10T02:15:05;4.60;;;1.90;;
38783;SDS011;24531;45.502;12.238;2023-05-10T02:17:32;2.80;;;2.20;;
38783;SDS011;24531;45.502;12.238;2023-05-10T02:19:59;3.80;;;2.08;;
38783;SDS011;24531;45.502;12.238;2023-05-10T02:22:27;2.28;;;1.80;;
38783;SDS011;24531;45.502;12.238;2023-05-10T02:24:57;2.72;;;2.10;;
38783;SDS011;24531;45.502;12.238;2023-05-10T02:27:24;3.85;;;2.38;;
38783;SDS011;24531;45.502;12.238;2023-05-10T02:29:52;3.83;;;1.92;;
38783;SDS011;24531;45.502;12.238;2023-05-10T02:32:19;2.83;;;1.92;;
38783;SDS011;24531;45.502;12.238;2023-05-10T02:34:47;2.22;;;2.03;;
38783;SDS011;24531;45.502;12.238;2023-05-10T02:37:17;4.18;;;2.17;;
38783;SDS011;24531;45.502;12.238;2023-05-10T02:39:46;3.35;;;2.25;;
38783;SDS011;24531;45.502;12.238;2023-05-10T02:42:17;4.53;;;2.13;;
38783;SDS011;24531;45.502;12.238;2023-05-10T02:44:47;6.30;;;2.30;;
38783;SDS011;24531;45.502;12.238;2023-05-10T02:47:15;5.32;;;2.40;;
38783;SDS011;24531;45.502;12.238;2023-05-10T02:49:41;2.20;;;1.83;;
38783;SDS011;24531;45.502;12.238;2023-05-10T02:52:07;5.10;;;2.55;;
38783;SDS011;24531;45.502;12.238;2023-05-10T02:54:39;3.72;;;2.30;;
38783;SDS011;24531;45.502;12.238;2023-05-10T02:57:09;4.13;;;2.45;;
38783;SDS011;24531;45.502;12.238;2023-05-10T02:59:40;3.28;;;1.75;;
38783;SDS011;24531;45.502;12.238;2023-05-10T03:02:07;6.00;;;2.20;;
38783;SDS011;24531;45.502;12.238;2023-05-10T03:04:34;4.55;;;2.53;;
38783;SDS011;24531;45.502;12.238;2023-05-10T03:07:00;4.10;;;2.17;;
38783;SDS011;24531;45.502;12.238;2023-05-10T03:09:26;2.42;;;2.15;;
38783;SDS011;24531;45.502;12.238;2023-05-10T03:19:54;3.25;;;1.95;;
38783;SDS011;24531;45.502;12.238;2023-05-10T03:22:26;2.95;;;2.08;;
38783;SDS011;24531;45.502;12.238;2023-05-10T03:25:04;4.60;;;2.25;;
38783;SDS011;24531;45.502;12.238;2023-05-10T03:27:31;3.88;;;2.30;;
38783;SDS011;24531;45.502;12.238;2023-05-10T03:29:58;3.65;;;2.13;;
38783;SDS011;24531;45.502;12.238;2023-05-10T03:32:26;2.10;;;1.90;;
38783;SDS011;24531;45.502;12.238;2023-05-10T03:34:55;3.05;;;2.20;;
38783;SDS011;24531;45.502;12.238;2023-05-10T03:37:20;3.33;;;2.30;;
38783;SDS011;24531;45.502;12.238;2023-05-10T03:39:46;4.72;;;2.75;;
38783;SDS011;24531;45.502;12.238;2023-05-10T03:42:12;4.60;;;2.20;;
38783;SDS011;24531;45.502;12.238;2023-05-10T03:44:40;2.40;;;2.08;;
38783;SDS011;24531;45.502;12.238;2023-05-10T03:47:06;2.45;;;2.05;;
38783;SDS011;24531;45.502;12.238;2023-05-10T03:49:32;2.97;;;2.15;;
38783;SDS011;24531;45.502;12.238;2023-05-10T03:51:57;4.03;;;2.30;;
38783;SDS011;24531;45.502;12.238;2023-05-10T03:54:23;2.90;;;2.05;;
38783;SDS011;24531;45.502;12.238;2023-05-10T03:56:48;4.05;;;2.33;;
38783;SDS011;24531;45.502;12.238;2023-05-10T03:59:14;4.78;;;2.67;;
38783;SDS011;24531;45.502;12.238;2023-05-10T04:01:40;4.20;;;2.42;;
38783;SDS011;24531;45.502;12.238;2023-05-10T04:04:05;3.00;;;2.72;;
38783;SDS011;24531;45.502;12.238;2023-05-10T04:06:31;2.40;;;2.20;;
38783;SDS011;24531;45.502;12.238;2023-05-10T04:08:57;4.22;;;2.30;;
38783;SDS011;24531;45.502;12.238;2023-05-10T04:11:25;3.50;;;2.53;;
38783;SDS011;24531;45.502;12.238;2023-05-10T04:13:50;3.75;;;2.30;;
38783;SDS011;24531;45.502;12.238;2023-05-10T04:16:16;3.65;;;2.10;;
38783;SDS011;24531;45.502;12.238;2023-05-10T04:18:42;3.28;;;2.45;;
38783;SDS011;24531;45.502;12.238;2023-05-10T04:21:11;3.40;;;2.47;;
38783;SDS011;24531;45.502;12.238;2023-05-10T04:23:37;3.28;;;2.20;;
38783;SDS011;24531;45.502;12.238;2023-05-10T04:26:03;5.07;;;2.20;;
38783;SDS011;24531;45.502;12.238;2023-05-10T04:28:29;2.53;;;2.05;;
38783;SDS011;24531;45.502;12.238;2023-05-10T04:31:01;3.67;;;2.60;;
38783;SDS011;24531;45.502;12.238;2023-05-10T04:35:52;2.92;;;2.03;;
38783;SDS011;24531;45.502;12.238;2023-05-10T04:38:18;3.08;;;2.15;;
38783;SDS011;24531;45.502;12.238;2023-05-10T04:40:44;3.63;;;2.42;;
38783;SDS011;24531;45.502;12.238;2023-05-10T04:43:09;3.65;;;2.40;;
38783;SDS011;24531;45.502;12.238;2023-05-10T04:45:35;5.85;;;2.63;;
38783;SDS011;24531;45.502;12.238;2023-05-10T04:48:00;3.10;;;2.65;;
38783;SDS011;24531;45.502;12.238;2023-05-10T04:50:26;3.72;;;2.80;;
38783;SDS011;24531;45.502;12.238;2023-05-10T04:52:52;3.50;;;2.75;;
38783;SDS011;24531;45.502;12.238;2023-05-10T04:55:17;3.65;;;2.30;;
38783;SDS011;24531;45.502;12.238;2023-05-10T04:57:43;5.65;;;3.13;;
38783;SDS011;24531;45.502;12.238;2023-05-10T05:00:10;5.40;;;2.67;;
38783;SDS011;24531;45.502;12.238;2023-05-10T05:02:36;3.08;;;2.20;;
38783;SDS011;24531;45.502;12.238;2023-05-10T05:05:01;4.47;;;2.95;;
38783;SDS011;24531;45.502;12.238;2023-05-10T05:07:27;4.50;;;2.28;;
38783;SDS011;24531;45.502;12.238;2023-05-10T05:09:53;3.30;;;2.30;;
38783;SDS011;24531;45.502;12.238;2023-05-10T05:12:18;4.20;;;2.75;;
38783;SDS011;24531;45.502;12.238;2023-05-10T05:14:44;3.75;;;2.45;;
38783;SDS011;24531;45.502;12.238;2023-05-10T05:17:09;4.53;;;2.85;;
38783;SDS011;24531;45.502;12.238;2023-05-10T05:19:35;2.75;;;2.25;;
38783;SDS011;24531;45.502;12.238;2023-05-10T05:22:01;5.03;;;2.88;;
38783;SDS011;24531;45.502;12.238;2023-05-10T05:24:26;3.35;;;2.55;;
38783;SDS011;24531;45.502;12.238;2023-05-10T05:26:52;4.30;;;2.65;;
38783;SDS011;24531;45.502;12.238;2023-05-10T05:29:17;3.70;;;2.80;;
38783;SDS011;24531;45.502;12.238;2023-05-10T05:31:44;3.25;;;2.90;;
38783;SDS011;24531;45.502;12.238;2023-05-10T05:34:10;4.10;;;2.85;;
38783;SDS011;24531;45.502;12.238;2023-05-10T05:36:36;3.90;;;2.40;;
38783;SDS011;24531;45.502;12.238;2023-05-10T05:39:05;3.60;;;2.20;;
38783;SDS011;24531;45.502;12.238;2023-05-10T05:41:30;4.00;;;2.58;;
38783;SDS011;24531;45.502;12.238;2023-05-10T05:43:56;2.55;;;2.17;;
38783;SDS011;24531;45.502;12.238;2023-05-10T05:46:21;6.47;;;2.60;;
38783;SDS011;24531;45.502;12.238;2023-05-10T05:48:47;3.88;;;2.60;;
38783;SDS011;24531;45.502;12.238;2023-05-10T05:51:12;3.58;;;2.40;;
38783;SDS011;24531;45.502;12.238;2023-05-10T05:53:38;4.10;;;2.55;;
38783;SDS011;24531;45.502;12.238;2023-05-10T05:56:04;4.57;;;3.35;;
38783;SDS011;24531;45.502;12.238;2023-05-10T05:58:29;4.47;;;2.67;;
38783;SDS011;24531;45.502;12.238;2023-05-10T06:00:55;4.88;;;2.95;;
38783;SDS011;24531;45.502;12.238;2023-05-10T06:03:20;3.58;;;2.42;;
38783;SDS011;24531;45.502;12.238;2023-05-10T06:05:46;5.80;;;2.58;;
38783;SDS011;24531;45.502;12.238;2023-05-10T06:08:12;6.07;;;2.85;;
38783;SDS011;24531;45.502;12.238;2023-05-10T06:10:37;6.30;;;3.20;;
38783;SDS011;24531;45.502;12.238;2023-05-10T06:13:03;3.13;;;2.70;;
38783;SDS011;24531;45.502;12.238;2023-05-10T06:15:29;3.35;;;2.50;;
38783;SDS011;24531;45.502;12.238;2023-05-10T06:17:54;6.95;;;3.45;;
38783;SDS011;24531;45.502;12.238;2023-05-10T06:20:20;4.65;;;2.47;;
38783;SDS011;24531;45.502;12.238;2023-05-10T06:22:46;2.88;;;2.53;;
38783;SDS011;24531;45.502;12.238;2023-05-10T06:25:11;3.17;;;2.42;;
38783;SDS011;24531;45.502;12.238;2023-05-10T06:27:37;4.80;;;2.80;;
38783;SDS011;24531;45.502;12.238;2023-05-10T06:30:03;5.07;;;2.72;;
38783;SDS011;24531;45.502;12.238;2023-05-10T06:32:29;3.30;;;3.00;;
38783;SDS011;24531;45.502;12.238;2023-05-10T06:34:55;3.83;;;2.83;;
38783;SDS011;24531;45.502;12.238;2023-05-10T06:37:21;4.47;;;2.75;;
38783;SDS011;24531;45.502;12.238;2023-05-10T06:39:46;7.00;;;2.78;;
38783;SDS011;24531;45.502;12.238;2023-05-10T06:42:12;5.57;;;2.95;;
38783;SDS011;24531;45.502;12.238;2023-05-10T06:44:38;4.10;;;3.13;;
38783;SDS011;24531;45.502;12.238;2023-05-10T06:47:03;4.55;;;2.95;;
38783;SDS011;24531;45.502;12.238;2023-05-10T06:49:29;5.78;;;3.45;;
38783;SDS011;24531;45.502;12.238;2023-05-10T06:51:55;4.28;;;3.17;;
38783;SDS011;24531;45.502;12.238;2023-05-10T06:54:21;4.47;;;3.45;;
38783;SDS011;24531;45.502;12.238;2023-05-10T06:56:46;5.10;;;3.35;;
38783;SDS011;24531;45.502;12.238;2023-05-10T06:59:12;3.72;;;2.95;;
38783;SDS011;24531;45.502;12.238;2023-05-10T07:01:38;5.53;;;3.50;;
38783;SDS011;24531;45.502;12.238;2023-05-10T07:04:04;3.95;;;2.97;;
38783;SDS011;24531;45.502;12.238;2023-05-10T07:06:30;4.43;;;3.22;;
38783;SDS011;24531;45.502;12.238;2023-05-10T07:08:55;4.60;;;3.35;;
38783;SDS011;24531;45.502;12.238;2023-05-10T07:11:22;4.82;;;3.45;;
38783;SDS011;24531;45.502;12.238;2023-05-10T07:13:47;4.65;;;3.38;;
38783;SDS011;24531;45.502;12.238;2023-05-10T07:16:13;4.68;;;3.13;;
38783;SDS011;24531;45.502;12.238;2023-05-10T07:18:38;5.97;;;3.40;;
38783;SDS011;24531;45.502;12.238;2023-05-10T07:21:04;5.93;;;3.50;;
38783;SDS011;24531;45.502;12.238;2023-05-10T07:23:30;4.88;;;3.20;;
38783;SDS011;24531;45.502;12.238;2023-05-10T07:25:55;4.68;;;3.15;;
38783;SDS011;24531;45.502;12.238;2023-05-10T07:28:22;7.07;;;3.00;;
38783;SDS011;24531;45.502;12.238;2023-05-10T07:30:49;6.22;;;3.72;;
38783;SDS011;24531;45.502;12.238;2023-05-10T07:33:15;4.45;;;3.00;;
38783;SDS011;24531;45.502;12.238;2023-05-10T07:35:41;8.00;;;3.67;;
38783;SDS011;24531;45.502;12.238;2023-05-10T07:38:07;5.07;;;3.13;;
38783;SDS011;24531;45.502;12.238;2023-05-10T07:40:32;6.88;;;3.78;;
38783;SDS011;24531;45.502;12.238;2023-05-10T07:42:58;5.05;;;2.67;;
38783;SDS011;24531;45.502;12.238;2023-05-10T07:45:26;8.43;;;4.72;;
38783;SDS011;24531;45.502;12.238;2023-05-10T07:47:52;5.32;;;3.63;;
38783;SDS011;24531;45.502;12.238;2023-05-10T07:50:18;4.95;;;3.38;;
38783;SDS011;24531;45.502;12.238;2023-05-10T07:52:43;13.43;;;3.97;;
38783;SDS011;24531;45.502;12.238;2023-05-10T07:55:09;5.03;;;3.50;;
38783;SDS011;24531;45.502;12.238;2023-05-10T07:57:35;3.72;;;3.15;;
38783;SDS011;24531;45.502;12.238;2023-05-10T08:00:01;4.93;;;3.63;;
38783;SDS011;24531;45.502;12.238;2023-05-10T08:02:27;4.03;;;2.95;;
38783;SDS011;24531;45.502;12.238;2023-05-10T08:04:53;7.70;;;4.00;;
38783;SDS011;24531;45.502;12.238;2023-05-10T08:07:18;4.70;;;3.72;;
38783;SDS011;24531;45.502;12.238;2023-05-10T08:09:44;5.40;;;4.18;;
38783;SDS011;24531;45.502;12.238;2023-05-10T08:12:09;5.72;;;4.10;;
38783;SDS011;24531;45.502;12.238;2023-05-10T08:14:35;7.00;;;3.60;;
38783;SDS011;24531;45.502;12.238;2023-05-10T08:17:01;6.78;;;4.35;;
38783;SDS011;24531;45.502;12.238;2023-05-10T08:19:28;6.78;;;3.97;;
38783;SDS011;24531;45.502;12.238;2023-05-10T08:21:53;6.32;;;3.95;;
38783;SDS011;24531;45.502;12.238;2023-05-10T08:24:20;4.45;;;3.65;;
38783;SDS011;24531;45.502;12.238;2023-05-10T08:26:46;5.05;;;3.42;;
38783;SDS011;24531;45.502;12.238;2023-05-10T08:29:12;6.03;;;3.78;;
38783;SDS011;24531;45.502;12.238;2023-05-10T08:31:38;3.97;;;3.47;;
38783;SDS011;24531;45.502;12.238;2023-05-10T08:34:04;4.55;;;3.47;;
38783;SDS011;24531;45.502;12.238;2023-05-10T08:36:30;6.90;;;3.58;;
38783;SDS011;24531;45.502;12.238;2023-05-10T08:38:57;8.55;;;5.15;;
38783;SDS011;24531;45.502;12.238;2023-05-10T08:41:23;6.50;;;4.13;;
38783;SDS011;24531;45.502;12.238;2023-05-10T08:43:51;5.22;;;4.38;;
38783;SDS011;24531;45.502;12.238;2023-05-10T08:46:18;4.57;;;3.85;;
38783;SDS011;24531;45.502;12.238;2023-05-10T08:48:45;6.68;;;4.47;;
38783;SDS011;24531;45.502;12.238;2023-05-10T08:51:17;5.53;;;4.07;;
38783;SDS011;24531;45.502;12.238;2023-05-10T08:53:47;5.65;;;4.47;;
38783;SDS011;24531;45.502;12.238;2023-05-10T08:56:13;7.30;;;4.30;;
38783;SDS011;24531;45.502;12.238;2023-05-10T08:58:40;8.23;;;4.28;;
38783;SDS011;24531;45.502;12.238;2023-05-10T09:01:06;5.88;;;3.97;;
38783;SDS011;24531;45.502;12.238;2023-05-10T09:03:33;6.75;;;4.22;;
38783;SDS011;24531;45.502;12.238;2023-05-10T09:06:00;8.82;;;5.00;;
38783;SDS011;24531;45.502;12.238;2023-05-10T09:08:26;12.60;;;5.07;;
38783;SDS011;24531;45.502;12.238;2023-05-10T09:10:52;5.68;;;4.50;;
38783;SDS011;24531;45.502;12.238;2023-05-10T09:13:19;7.45;;;4.55;;
38783;SDS011;24531;45.502;12.238;2023-05-10T09:15:46;9.60;;;4.65;;
38783;SDS011;24531;45.502;12.238;2023-05-10T09:18:13;5.40;;;4.32;;
38783;SDS011;24531;45.502;12.238;2023-05-10T09:20:39;6.20;;;5.07;;
38783;SDS011;24531;45.502;12.238;2023-05-10T09:23:05;7.68;;;4.90;;
38783;SDS011;24531;45.502;12.238;2023-05-10T09:25:31;7.97;;;5.38;;
38783;SDS011;24531;45.502;12.238;2023-05-10T09:27:58;6.60;;;4.88;;
38783;SDS011;24531;45.502;12.238;2023-05-10T09:30:25;5.32;;;4.25;;
38783;SDS011;24531;45.502;12.238;2023-05-10T09:32:55;8.48;;;4.55;;
38783;SDS011;24531;45.502;12.238;2023-05-10T09:35:23;8.38;;;4.22;;
38783;SDS011;24531;45.502;12.238;2023-05-10T09:37:51;7.32;;;5.47;;
38783;SDS011;24531;45.502;12.238;2023-05-10T09:40:22;6.10;;;4.70;;
38783;SDS011;24531;45.502;12.238;2023-05-10T09:45:19;9.75;;;4.75;;
38783;SDS011;24531;45.502;12.238;2023-05-10T09:47:45;7.20;;;4.78;;
38783;SDS011;24531;45.502;12.238;2023-05-10T09:50:11;6.40;;;5.22;;
38783;SDS011;24531;45.502;12.238;2023-05-10T09:53:19;7.78;;;5.97;;
38783;SDS011;24531;45.502;12.238;2023-05-10T09:58:06;8.48;;;5.20;;
38783;SDS011;24531;45.502;12.238;2023-05-10T10:00:35;7.22;;;5.35;;
38783;SDS011;24531;45.502;12.238;2023-05-10T10:03:02;10.18;;;5.15;;
38783;SDS011;24531;45.502;12.238;2023-05-10T10:05:29;7.53;;;5.10;;
38783;SDS011;24531;45.502;12.238;2023-05-10T10:07:59;6.78;;;4.60;;
38783;SDS011;24531;45.502;12.238;2023-05-10T10:10:29;8.95;;;5.43;;
38783;SDS011;24531;45.502;12.238;2023-05-10T10:12:56;6.97;;;4.90;;
38783;SDS011;24531;45.502;12.238;2023-05-10T10:15:22;9.27;;;5.60;;
38783;SDS011;24531;45.502;12.238;2023-05-10T10:17:49;7.97;;;5.28;;
38783;SDS011;24531;45.502;12.238;2023-05-10T10:20:16;6.35;;;4.80;;
38783;SDS011;24531;45.502;12.238;2023-05-10T10:22:42;6.63;;;4.97;;
38783;SDS011;24531;45.502;12.238;2023-05-10T10:25:09;9.80;;;5.50;;
38783;SDS011;24531;45.502;12.238;2023-05-10T10:27:40;7.70;;;5.57;;
38783;SDS011;24531;45.502;12.238;2023-05-10T10:32:50;8.43;;;5.80;;
38783;SDS011;24531;45.502;12.238;2023-05-10T10:35:29;7.75;;;5.72;;
38783;SDS011;24531;45.502;12.238;2023-05-10T10:37:55;7.13;;;4.78;;
38783;SDS011;24531;45.502;12.238;2023-05-10T10:40:31;6.80;;;5.20;;
38783;SDS011;24531;45.502;12.238;2023-05-10T10:42:59;7.57;;;5.10;;
38783;SDS011;24531;45.502;12.238;2023-05-10T10:48:39;9.52;;;6.13;;
38783;SDS011;24531;45.502;12.238;2023-05-10T10:51:06;6.43;;;5.55;;
38783;SDS011;24531;45.502;12.238;2023-05-10T10:53:32;7.53;;;4.95;;
38783;SDS011;24531;45.502;12.238;2023-05-10T10:56:10;6.15;;;4.90;;
38783;SDS011;24531;45.502;12.238;2023-05-10T10:58:40;7.90;;;5.18;;
38783;SDS011;24531;45.502;12.238;2023-05-10T11:01:16;8.02;;;5.63;;
38783;SDS011;24531;45.502;12.238;2023-05-10T11:06:34;6.53;;;5.53;;
38783;SDS011;24531;45.502;12.238;2023-05-10T11:09:10;6.93;;;5.75;;
38783;SDS011;24531;45.502;12.238;2023-05-10T11:11:52;7.53;;;5.75;;
38783;SDS011;24531;45.502;12.238;2023-05-10T11:14:23;7.25;;;5.78;;
38783;SDS011;24531;45.502;12.238;2023-05-10T11:16:49;8.30;;;5.72;;
38783;SDS011;24531;45.502;12.238;2023-05-10T11:19:15;6.82;;;5.40;;
38783;SDS011;24531;45.502;12.238;2023-05-10T11:21:49;8.07;;;5.65;;
38783;SDS011;24531;45.502;12.238;2023-05-10T11:24:17;7.40;;;5.43;;
38783;SDS011;24531;45.502;12.238;2023-05-10T11:26:46;12.70;;;5.97;;
38783;SDS011;24531;45.502;12.238;2023-05-10T11:29:15;7.20;;;5.80;;
38783;SDS011;24531;45.502;12.238;2023-05-10T11:31:44;7.68;;;5.70;;
38783;SDS011;24531;45.502;12.238;2023-05-10T11:34:11;8.63;;;5.80;;
38783;SDS011;24531;45.502;12.238;2023-05-10T11:36:50;7.78;;;5.68;;
38783;SDS011;24531;45.502;12.238;2023-05-10T11:39:16;6.55;;;5.32;;
38783;SDS011;24531;45.502;12.238;2023-05-10T11:41:42;8.35;;;5.55;;
38783;SDS011;24531;45.502;12.238;2023-05-10T11:44:08;6.22;;;5.22;;
38783;SDS011;24531;45.502;12.238;2023-05-10T11:46:34;7.03;;;5.25;;
38783;SDS011;24531;45.502;12.238;2023-05-10T11:49:01;6.28;;;5.40;;
38783;SDS011;24531;45.502;12.238;2023-05-10T11:51:29;10.68;;;5.45;;
38783;SDS011;24531;45.502;12.238;2023-05-10T11:53:57;7.85;;;5.93;;
38783;SDS011;24531;45.502;12.238;2023-05-10T11:56:23;7.05;;;5.28;;
38783;SDS011;24531;45.502;12.238;2023-05-10T11:58:57;9.00;;;4.88;;
38783;SDS011;24531;45.502;12.238;2023-05-10T12:01:26;8.77;;;6.30;;
38783;SDS011;24531;45.502;12.238;2023-05-10T12:03:53;7.20;;;5.28;;
38783;SDS011;24531;45.502;12.238;2023-05-10T12:06:20;9.07;;;5.78;;
38783;SDS011;24531;45.502;12.238;2023-05-10T12:08:48;6.40;;;5.07;;
38783;SDS011;24531;45.502;12.238;2023-05-10T12:11:18;6.57;;;5.00;;
38783;SDS011;24531;45.502;12.238;2023-05-10T12:13:45;10.15;;;5.93;;
38783;SDS011;24531;45.502;12.238;2023-05-10T12:16:32;6.80;;;5.32;;
38783;SDS011;24531;45.502;12.238;2023-05-10T12:18:58;7.85;;;5.35;;
38783;SDS011;24531;45.502;12.238;2023-05-10T12:21:25;8.13;;;5.82;;
38783;SDS011;24531;45.502;12.238;2023-05-10T12:23:52;9.60;;;6.20;;
38783;SDS011;24531;45.502;12.238;2023-05-10T12:26:22;8.90;;;5.65;;
38783;SDS011;24531;45.502;12.238;2023-05-10T12:28:49;10.98;;;6.13;;
38783;SDS011;24531;45.502;12.238;2023-05-10T12:31:15;7.65;;;5.68;;
38783;SDS011;24531;45.502;12.238;2023-05-10T12:33:41;9.45;;;6.53;;
38783;SDS011;24531;45.502;12.238;2023-05-10T12:36:08;7.70;;;6.18;;
38783;SDS011;24531;45.502;12.238;2023-05-10T12:38:36;8.88;;;5.40;;
38783;SDS011;24531;45.502;12.238;2023-05-10T12:41:04;9.52;;;6.22;;
38783;SDS011;24531;45.502;12.238;2023-05-10T12:43:34;7.55;;;6.03;;
38783;SDS011;24531;45.502;12.238;2023-05-10T12:46:16;9.95;;;5.75;;
38783;SDS011;24531;45.502;12.238;2023-05-10T12:48:42;10.13;;;6.47;;
38783;SDS011;24531;45.502;12.238;2023-05-10T12:51:09;12.05;;;6.95;;
38783;SDS011;24531;45.502;12.238;2023-05-10T12:53:36;8.73;;;6.20;;
38783;SDS011;24531;45.502;12.238;2023-05-10T12:56:02;9.82;;;5.82;;
38783;SDS011;24531;45.502;12.238;2023-05-10T12:58:28;9.48;;;6.05;;
38783;SDS011;24531;45.502;12.238;2023-05-10T13:00:54;9.90;;;6.00;;
38783;SDS011;24531;45.502;12.238;2023-05-10T13:03:21;12.15;;;6.75;;
38783;SDS011;24531;45.502;12.238;2023-05-10T13:05:47;7.72;;;5.88;;
38783;SDS011;24531;45.502;12.238;2023-05-10T13:08:13;8.55;;;6.50;;
38783;SDS011;24531;45.502;12.238;2023-05-10T13:10:38;9.07;;;6.60;;
38783;SDS011;24531;45.502;12.238;2023-05-10T13:13:04;11.38;;;6.15;;
38783;SDS011;24531;45.502;12.238;2023-05-10T13:15:30;11.90;;;6.70;;
38783;SDS011;24531;45.502;12.238;2023-05-10T13:17:56;10.23;;;7.15;;
38783;SDS011;24531;45.502;12.238;2023-05-10T13:20:21;9.18;;;6.40;;
38783;SDS011;24531;45.502;12.238;2023-05-10T13:22:47;10.43;;;7.18;;
38783;SDS011;24531;45.502;12.238;2023-05-10T13:25:13;7.38;;;5.75;;
38783;SDS011;24531;45.502;12.238;2023-05-10T13:27:39;13.13;;;6.88;;
38783;SDS011;24531;45.502;12.238;2023-05-10T13:30:05;10.90;;;6.75;;
38783;SDS011;24531;45.502;12.238;2023-05-10T13:32:31;11.20;;;7.53;;
38783;SDS011;24531;45.502;12.238;2023-05-10T13:34:58;9.98;;;7.35;;
38783;SDS011;24531;45.502;12.238;2023-05-10T13:37:23;10.43;;;7.32;;
38783;SDS011;24531;45.502;12.238;2023-05-10T13:39:49;9.32;;;6.38;;
38783;SDS011;24531;45.502;12.238;2023-05-10T13:42:14;8.80;;;6.25;;
38783;SDS011;24531;45.502;12.238;2023-05-10T13:44:40;11.45;;;7.25;;
38783;SDS011;24531;45.502;12.238;2023-05-10T13:47:06;10.27;;;6.93;;
38783;SDS011;24531;45.502;12.238;2023-05-10T13:49:32;15.63;;;7.32;;
38783;SDS011;24531;45.502;12.238;2023-05-10T13:51:58;9.45;;;6.25;;
38783;SDS011;24531;45.502;12.238;2023-05-10T13:54:30;10.05;;;6.88;;
38783;SDS011;24531;45.502;12.238;2023-05-10T13:56:56;10.27;;;6.88;;
38783;SDS011;24531;45.502;12.238;2023-05-10T13:59:22;9.75;;;7.07;;
38783;SDS011;24531;45.502;12.238;2023-05-10T14:01:47;9.70;;;6.97;;
38783;SDS011;24531;45.502;12.238;2023-05-10T14:04:13;10.85;;;7.32;;
38783;SDS011;24531;45.502;12.238;2023-05-10T14:06:39;8.95;;;7.05;;
38783;SDS011;24531;45.502;12.238;2023-05-10T14:09:05;10.55;;;6.82;;
38783;SDS011;24531;45.502;12.238;2023-05-10T14:11:30;10.60;;;7.07;;
38783;SDS011;24531;45.502;12.238;2023-05-10T14:13:56;11.80;;;7.00;;
38783;SDS011;24531;45.502;12.238;2023-05-10T14:16:21;9.10;;;6.57;;
38783;SDS011;24531;45.502;12.238;2023-05-10T14:18:47;7.90;;;6.60;;
38783;SDS011;24531;45.502;12.238;2023-05-10T14:21:13;8.50;;;5.95;;
38783;SDS011;24531;45.502;12.238;2023-05-10T14:23:38;8.65;;;6.80;;
38783;SDS011;24531;45.502;12.238;2023-05-10T14:26:04;7.95;;;5.97;;
38783;SDS011;24531;45.502;12.238;2023-05-10T14:28:30;10.77;;;6.00;;
38783;SDS011;24531;45.502;12.238;2023-05-10T14:30:55;8.65;;;6.60;;
38783;SDS011;24531;45.502;12.238;2023-05-10T14:33:21;6.82;;;5.85;;
38783;SDS011;24531;45.502;12.238;2023-05-10T14:35:47;12.20;;;5.90;;
38783;SDS011;24531;45.502;12.238;2023-05-10T14:38:13;10.60;;;6.47;;
38783;SDS011;24531;45.502;12.238;2023-05-10T14:40:39;7.50;;;6.25;;
38783;SDS011;24531;45.502;12.238;2023-05-10T14:43:05;8.13;;;6.25;;
38783;SDS011;24531;45.502;12.238;2023-05-10T14:45:30;10.50;;;7.15;;
38783;SDS011;24531;45.502;12.238;2023-05-10T14:47:56;9.27;;;6.72;;
38783;SDS011;24531;45.502;12.238;2023-05-10T14:50:22;9.95;;;7.30;;
38783;SDS011;24531;45.502;12.238;2023-05-10T14:52:48;8.43;;;6.57;;
38783;SDS011;24531;45.502;12.238;2023-05-10T14:55:15;9.05;;;7.38;;
38783;SDS011;24531;45.502;12.238;2023-05-10T14:57:40;11.25;;;7.10;;
38783;SDS011;24531;45.502;12.238;2023-05-10T15:00:07;9.75;;;7.15;;
38783;SDS011;24531;45.502;12.238;2023-05-10T15:02:33;8.82;;;6.95;;